sensor_id;sensor_type;location;lat;lon;timestamp;temperature;humidity
6462;DHT22;3264;42.862;25.098;2022-12-26T00:00:17;1.60;99.90
6462;DHT22;3264;42.862;25.098;2022-12-26T00:02:46;1.60;99.90
6462;DHT22;3264;42.862;25.098;2022-12-26T00:05:16;1.60;99.90
6462;DHT22;3264;42.862;25.098;2022-12-26T00:07:48;1.70;99.90
6462;DHT22;3264;42.862;25.098;2022-12-26T00:10:18;1.70;99.90
6462;DHT22;3264;42.862;25.098;2022-12-26T00:12:46;1.60;99.90
6462;DHT22;3264;42.862;25.098;2022-12-26T00:15:13;1.60;99.90
6462;DHT22;3264;42.862;25.098;2022-12-26T00:17:41;1.50;99.90
6462;DHT22;3264;42.862;25.098;2022-12-26T00:20:12;1.50;99.90
6462;DHT22;3264;42.862;25.098;2022-12-26T00:22:40;1.60;99.90
6462;DHT22;3264;42.862;25.098;2022-12-26T00:25:40;1.70;99.90
6462;DHT22;3264;42.862;25.098;2022-12-26T00:28:08;1.70;99.90
6462;DHT22;3264;42.862;25.098;2022-12-26T00:30:42;1.70;99.90
6462;DHT22;3264;42.862;25.098;2022-12-26T00:33:13;1.60;99.90
6462;DHT22;3264;42.862;25.098;2022-12-26T00:35:42;1.50;99.90
6462;DHT22;3264;42.862;25.098;2022-12-26T00:38:12;1.40;99.90
6462;DHT22;3264;42.862;25.098;2022-12-26T00:40:45;1.30;99.90
6462;DHT22;3264;42.862;25.098;2022-12-26T00:43:21;1.30;99.90
6462;DHT22;3264;42.862;25.098;2022-12-26T00:45:49;1.60;99.90
6462;DHT22;3264;42.862;25.098;2022-12-26T00:48:20;1.50;99.90
6462;DHT22;3264;42.862;25.098;2022-12-26T00:50:48;1.40;99.90
6462;DHT22;3264;42.862;25.098;2022-12-26T00:53:16;1.40;99.90
6462;DHT22;3264;42.862;25.098;2022-12-26T00:55:58;1.40;99.90
6462;DHT22;3264;42.862;25.098;2022-12-26T00:58:27;1.40;99.90
6462;DHT22;3264;42.862;25.098;2022-12-26T01:01:03;1.50;99.90
6462;DHT22;3264;42.862;25.098;2022-12-26T01:03:33;1.30;99.90
6462;DHT22;3264;42.862;25.098;2022-12-26T01:06:02;1.10;99.90
6462;DHT22;3264;42.862;25.098;2022-12-26T01:08:30;1.10;99.90
6462;DHT22;3264;42.862;25.098;2022-12-26T01:11:13;1.10;99.90
6462;DHT22;3264;42.862;25.098;2022-12-26T01:14:27;1.10;99.90
6462;DHT22;3264;42.862;25.098;2022-12-26T01:17:01;1.30;99.90
6462;DHT22;3264;42.862;25.098;2022-12-26T01:19:32;1.30;99.90
6462;DHT22;3264;42.862;25.098;2022-12-26T01:22:02;1.30;99.90
6462;DHT22;3264;42.862;25.098;2022-12-26T01:24:32;1.20;99.90
6462;DHT22;3264;42.862;25.098;2022-12-26T01:27:01;1.20;99.90
6462;DHT22;3264;42.862;25.098;2022-12-26T01:29:35;1.10;99.90
6462;DHT22;3264;42.862;25.098;2022-12-26T01:32:04;1.00;99.90
6462;DHT22;3264;42.862;25.098;2022-12-26T01:34:33;1.10;99.90
6462;DHT22;3264;42.862;25.098;2022-12-26T01:37:02;1.00;99.90
6462;DHT22;3264;42.862;25.098;2022-12-26T01:39:32;0.90;99.90
6462;DHT22;3264;42.862;25.098;2022-12-26T01:42:04;0.90;99.90
6462;DHT22;3264;42.862;25.098;2022-12-26T01:45:05;0.90;99.90
6462;DHT22;3264;42.862;25.098;2022-12-26T01:47:48;0.80;99.90
6462;DHT22;3264;42.862;25.098;2022-12-26T01:50:42;0.70;99.90
6462;DHT22;3264;42.862;25.098;2022-12-26T01:53:18;0.70;99.90
6462;DHT22;3264;42.862;25.098;2022-12-26T01:55:53;0.90;99.90
6462;DHT22;3264;42.862;25.098;2022-12-26T01:58:29;0.90;99.90
6462;DHT22;3264;42.862;25.098;2022-12-26T02:01:06;0.80;99.90
6462;DHT22;3264;42.862;25.098;2022-12-26T02:03:34;0.70;99.90
6462;DHT22;3264;42.862;25.098;2022-12-26T02:06:21;0.60;99.90
6462;DHT22;3264;42.862;25.098;2022-12-26T02:08:58;0.50;99.90
6462;DHT22;3264;42.862;25.098;2022-12-26T02:11:30;0.60;99.90
6462;DHT22;3264;42.862;25.098;2022-12-26T02:14:19;0.70;99.90
6462;DHT22;3264;42.862;25.098;2022-12-26T02:16:48;0.70;99.90
6462;DHT22;3264;42.862;25.098;2022-12-26T02:19:25;0.70;99.90
6462;DHT22;3264;42.862;25.098;2022-12-26T02:22:18;0.80;99.90
6462;DHT22;3264;42.862;25.098;2022-12-26T02:28:23;0.80;99.90
6462;DHT22;3264;42.862;25.098;2022-12-26T02:31:01;0.70;99.90
6462;DHT22;3264;42.862;25.098;2022-12-26T02:33:44;0.60;99.90
6462;DHT22;3264;42.862;25.098;2022-12-26T02:37:00;0.60;99.90
6462;DHT22;3264;42.862;25.098;2022-12-26T02:39:45;0.50;99.90
6462;DHT22;3264;42.862;25.098;2022-12-26T02:42:32;0.50;99.90
6462;DHT22;3264;42.862;25.098;2022-12-26T02:45:10;0.50;99.90
6462;DHT22;3264;42.862;25.098;2022-12-26T02:48:05;0.50;99.90
6462;DHT22;3264;42.862;25.098;2022-12-26T02:50:48;0.50;99.90
6462;DHT22;3264;42.862;25.098;2022-12-26T02:53:44;0.60;99.90
6462;DHT22;3264;42.862;25.098;2022-12-26T02:56:35;0.60;99.90
6462;DHT22;3264;42.862;25.098;2022-12-26T02:59:27;0.70;99.90
6462;DHT22;3264;42.862;25.098;2022-12-26T03:02:23;0.90;99.90
6462;DHT22;3264;42.862;25.098;2022-12-26T03:05:22;0.80;99.90
6462;DHT22;3264;42.862;25.098;2022-12-26T03:08:13;0.70;99.90
6462;DHT22;3264;42.862;25.098;2022-12-26T03:11:16;0.60;99.90
6462;DHT22;3264;42.862;25.098;2022-12-26T03:14:09;0.50;99.90
6462;DHT22;3264;42.862;25.098;2022-12-26T03:16:38;0.50;99.90
6462;DHT22;3264;42.862;25.098;2022-12-26T03:19:26;0.60;99.90
6462;DHT22;3264;42.862;25.098;2022-12-26T03:21:57;0.50;99.90
6462;DHT22;3264;42.862;25.098;2022-12-26T03:24:27;0.40;99.90
6462;DHT22;3264;42.862;25.098;2022-12-26T03:27:16;0.40;99.90
6462;DHT22;3264;42.862;25.098;2022-12-26T03:29:43;0.30;99.90
6462;DHT22;3264;42.862;25.098;2022-12-26T03:32:41;0.30;99.90
6462;DHT22;3264;42.862;25.098;2022-12-26T03:35:12;0.50;99.90
6462;DHT22;3264;42.862;25.098;2022-12-26T03:37:50;0.60;99.90
6462;DHT22;3264;42.862;25.098;2022-12-26T03:40:32;0.50;99.90
6462;DHT22;3264;42.862;25.098;2022-12-26T03:43:30;0.50;99.90
6462;DHT22;3264;42.862;25.098;2022-12-26T03:46:23;0.50;99.90
6462;DHT22;3264;42.862;25.098;2022-12-26T03:49:17;0.50;99.90
6462;DHT22;3264;42.862;25.098;2022-12-26T03:52:18;0.40;99.90
6462;DHT22;3264;42.862;25.098;2022-12-26T03:55:16;0.50;99.90
6462;DHT22;3264;42.862;25.098;2022-12-26T03:58:08;0.70;99.90
6462;DHT22;3264;42.862;25.098;2022-12-26T04:00:55;0.80;99.90
6462;DHT22;3264;42.862;25.098;2022-12-26T04:03:43;0.80;99.90
6462;DHT22;3264;42.862;25.098;2022-12-26T04:06:33;0.70;99.90
6462;DHT22;3264;42.862;25.098;2022-12-26T04:09:27;0.60;99.90
6462;DHT22;3264;42.862;25.098;2022-12-26T04:12:18;0.40;99.90
6462;DHT22;3264;42.862;25.098;2022-12-26T04:15:10;0.40;99.90
6462;DHT22;3264;42.862;25.098;2022-12-26T04:18:00;0.30;99.90
6462;DHT22;3264;42.862;25.098;2022-12-26T04:20:53;0.20;99.90
6462;DHT22;3264;42.862;25.098;2022-12-26T04:23:33;0.10;99.90
6462;DHT22;3264;42.862;25.098;2022-12-26T04:26:26;0.00;99.90
6462;DHT22;3264;42.862;25.098;2022-12-26T04:29:14;0.00;99.90
6462;DHT22;3264;42.862;25.098;2022-12-26T04:32:22;0.10;99.90
6462;DHT22;3264;42.862;25.098;2022-12-26T04:35:14;0.20;99.90
6462;DHT22;3264;42.862;25.098;2022-12-26T04:38:02;0.30;99.90
6462;DHT22;3264;42.862;25.098;2022-12-26T04:40:50;0.30;99.90
6462;DHT22;3264;42.862;25.098;2022-12-26T04:43:39;0.20;99.90
6462;DHT22;3264;42.862;25.098;2022-12-26T04:46:28;0.30;99.90
6462;DHT22;3264;42.862;25.098;2022-12-26T04:48:59;0.40;99.90
6462;DHT22;3264;42.862;25.098;2022-12-26T04:51:47;0.50;99.90
6462;DHT22;3264;42.862;25.098;2022-12-26T04:54:15;0.50;99.90
6462;DHT22;3264;42.862;25.098;2022-12-26T04:56:44;0.50;99.90
6462;DHT22;3264;42.862;25.098;2022-12-26T04:59:12;0.50;99.90
6462;DHT22;3264;42.862;25.098;2022-12-26T05:01:42;0.50;99.90
6462;DHT22;3264;42.862;25.098;2022-12-26T05:04:26;0.50;99.90
6462;DHT22;3264;42.862;25.098;2022-12-26T05:07:16;0.40;99.90
6462;DHT22;3264;42.862;25.098;2022-12-26T05:10:03;0.40;99.90
6462;DHT22;3264;42.862;25.098;2022-12-26T05:12:32;0.40;99.90
6462;DHT22;3264;42.862;25.098;2022-12-26T05:15:00;0.60;99.90
6462;DHT22;3264;42.862;25.098;2022-12-26T05:17:30;0.70;99.90
6462;DHT22;3264;42.862;25.098;2022-12-26T05:20:15;0.60;99.90
6462;DHT22;3264;42.862;25.098;2022-12-26T05:23:03;0.60;99.90
6462;DHT22;3264;42.862;25.098;2022-12-26T05:25:49;0.40;99.90
6462;DHT22;3264;42.862;25.098;2022-12-26T05:28:33;0.40;99.90
6462;DHT22;3264;42.862;25.098;2022-12-26T05:31:13;0.30;99.90
6462;DHT22;3264;42.862;25.098;2022-12-26T05:33:44;0.20;99.90
6462;DHT22;3264;42.862;25.098;2022-12-26T05:36:33;0.10;99.90
6462;DHT22;3264;42.862;25.098;2022-12-26T05:39:02;0.10;99.90
6462;DHT22;3264;42.862;25.098;2022-12-26T05:41:31;0.20;99.90
6462;DHT22;3264;42.862;25.098;2022-12-26T05:44:00;0.20;99.90
6462;DHT22;3264;42.862;25.098;2022-12-26T05:46:28;0.30;99.90
6462;DHT22;3264;42.862;25.098;2022-12-26T05:48:58;0.30;99.90
6462;DHT22;3264;42.862;25.098;2022-12-26T05:51:25;0.40;99.90
6462;DHT22;3264;42.862;25.098;2022-12-26T05:53:54;0.50;99.90
6462;DHT22;3264;42.862;25.098;2022-12-26T05:56:22;0.60;99.90
6462;DHT22;3264;42.862;25.098;2022-12-26T05:58:53;0.50;99.90
6462;DHT22;3264;42.862;25.098;2022-12-26T06:01:23;0.40;99.90
6462;DHT22;3264;42.862;25.098;2022-12-26T06:03:53;0.40;99.90
6462;DHT22;3264;42.862;25.098;2022-12-26T06:06:23;0.30;99.90
6462;DHT22;3264;42.862;25.098;2022-12-26T06:08:52;0.40;99.90
6462;DHT22;3264;42.862;25.098;2022-12-26T06:11:21;0.50;99.90
6462;DHT22;3264;42.862;25.098;2022-12-26T06:13:50;0.50;99.90
6462;DHT22;3264;42.862;25.098;2022-12-26T06:16:18;0.50;99.90
6462;DHT22;3264;42.862;25.098;2022-12-26T06:18:46;0.50;99.90
6462;DHT22;3264;42.862;25.098;2022-12-26T06:21:17;0.60;99.90
6462;DHT22;3264;42.862;25.098;2022-12-26T06:23:47;0.50;99.90
6462;DHT22;3264;42.862;25.098;2022-12-26T06:26:15;0.70;99.90
6462;DHT22;3264;42.862;25.098;2022-12-26T06:28:44;2.20;99.90
6462;DHT22;3264;42.862;25.098;2022-12-26T06:31:15;4.80;99.90
6462;DHT22;3264;42.862;25.098;2022-12-26T06:33:46;6.00;99.90
6462;DHT22;3264;42.862;25.098;2022-12-26T06:36:15;6.00;98.40
6462;DHT22;3264;42.862;25.098;2022-12-26T06:38:47;6.40;99.80
6462;DHT22;3264;42.862;25.098;2022-12-26T06:41:16;6.60;98.50
6462;DHT22;3264;42.862;25.098;2022-12-26T06:43:45;6.60;98.70
6462;DHT22;3264;42.862;25.098;2022-12-26T06:46:15;6.70;97.50
6462;DHT22;3264;42.862;25.098;2022-12-26T06:48:43;5.70;98.40
6462;DHT22;3264;42.862;25.098;2022-12-26T06:51:15;6.10;99.90
6462;DHT22;3264;42.862;25.098;2022-12-26T06:53:46;5.30;99.90
6462;DHT22;3264;42.862;25.098;2022-12-26T06:56:15;4.10;99.90
6462;DHT22;3264;42.862;25.098;2022-12-26T06:58:44;3.50;99.90
6462;DHT22;3264;42.862;25.098;2022-12-26T07:01:14;3.30;99.90
6462;DHT22;3264;42.862;25.098;2022-12-26T07:03:42;3.20;99.90
6462;DHT22;3264;42.862;25.098;2022-12-26T07:06:12;3.40;99.90
6462;DHT22;3264;42.862;25.098;2022-12-26T07:08:42;3.40;99.90
6462;DHT22;3264;42.862;25.098;2022-12-26T07:11:18;3.60;99.90
6462;DHT22;3264;42.862;25.098;2022-12-26T07:13:47;3.70;99.90
6462;DHT22;3264;42.862;25.098;2022-12-26T07:16:14;3.80;99.90
6462;DHT22;3264;42.862;25.098;2022-12-26T07:18:43;3.60;99.90
6462;DHT22;3264;42.862;25.098;2022-12-26T07:21:15;4.00;99.90
6462;DHT22;3264;42.862;25.098;2022-12-26T07:23:43;3.80;99.90
6462;DHT22;3264;42.862;25.098;2022-12-26T07:26:11;3.90;99.90
6462;DHT22;3264;42.862;25.098;2022-12-26T07:28:41;3.70;99.90
6462;DHT22;3264;42.862;25.098;2022-12-26T07:31:15;4.40;99.90
6462;DHT22;3264;42.862;25.098;2022-12-26T07:33:44;4.50;99.90
6462;DHT22;3264;42.862;25.098;2022-12-26T07:36:13;4.90;99.90
6462;DHT22;3264;42.862;25.098;2022-12-26T07:38:41;5.10;99.90
6462;DHT22;3264;42.862;25.098;2022-12-26T07:41:09;5.60;99.90
6462;DHT22;3264;42.862;25.098;2022-12-26T07:43:55;6.50;99.90
6462;DHT22;3264;42.862;25.098;2022-12-26T07:46:24;8.30;99.30
6462;DHT22;3264;42.862;25.098;2022-12-26T07:48:52;9.60;95.70
6462;DHT22;3264;42.862;25.098;2022-12-26T07:51:20;9.90;91.70
6462;DHT22;3264;42.862;25.098;2022-12-26T07:53:49;11.10;89.00
6462;DHT22;3264;42.862;25.098;2022-12-26T07:56:17;10.70;87.30
6462;DHT22;3264;42.862;25.098;2022-12-26T07:58:48;10.60;81.00
6462;DHT22;3264;42.862;25.098;2022-12-26T08:01:19;11.70;81.70
6462;DHT22;3264;42.862;25.098;2022-12-26T08:03:49;12.80;80.40
6462;DHT22;3264;42.862;25.098;2022-12-26T08:06:17;12.80;73.10
6462;DHT22;3264;42.862;25.098;2022-12-26T08:08:46;15.00;71.00
6462;DHT22;3264;42.862;25.098;2022-12-26T08:11:16;13.90;63.90
6462;DHT22;3264;42.862;25.098;2022-12-26T08:13:44;14.60;66.60
6462;DHT22;3264;42.862;25.098;2022-12-26T08:16:14;14.70;64.30
6462;DHT22;3264;42.862;25.098;2022-12-26T08:18:44;12.70;64.40
6462;DHT22;3264;42.862;25.098;2022-12-26T08:21:13;13.80;70.00
6462;DHT22;3264;42.862;25.098;2022-12-26T08:23:42;13.30;67.60
6462;DHT22;3264;42.862;25.098;2022-12-26T08:26:12;14.80;66.00
6462;DHT22;3264;42.862;25.098;2022-12-26T08:28:45;15.60;64.10
6462;DHT22;3264;42.862;25.098;2022-12-26T08:31:14;15.70;60.50
6462;DHT22;3264;42.862;25.098;2022-12-26T08:33:45;15.30;59.50
6462;DHT22;3264;42.862;25.098;2022-12-26T08:36:14;14.70;60.00
6462;DHT22;3264;42.862;25.098;2022-12-26T08:38:45;16.50;62.10
6462;DHT22;3264;42.862;25.098;2022-12-26T08:41:13;15.50;60.30
6462;DHT22;3264;42.862;25.098;2022-12-26T08:43:47;15.10;61.10
6462;DHT22;3264;42.862;25.098;2022-12-26T08:46:16;14.30;62.40
6462;DHT22;3264;42.862;25.098;2022-12-26T08:48:46;15.50;61.90
6462;DHT22;3264;42.862;25.098;2022-12-26T08:51:16;16.70;61.10
6462;DHT22;3264;42.862;25.098;2022-12-26T08:53:44;17.00;58.20
6462;DHT22;3264;42.862;25.098;2022-12-26T08:56:14;16.20;56.70
6462;DHT22;3264;42.862;25.098;2022-12-26T08:58:43;16.00;55.50
6462;DHT22;3264;42.862;25.098;2022-12-26T09:01:18;15.90;56.90
6462;DHT22;3264;42.862;25.098;2022-12-26T09:03:50;17.60;54.80
6462;DHT22;3264;42.862;25.098;2022-12-26T09:06:18;18.20;56.80
6462;DHT22;3264;42.862;25.098;2022-12-26T09:08:46;17.10;54.60
6462;DHT22;3264;42.862;25.098;2022-12-26T09:11:16;17.70;55.40
6462;DHT22;3264;42.862;25.098;2022-12-26T09:13:45;16.70;54.10
6462;DHT22;3264;42.862;25.098;2022-12-26T09:16:16;18.00;55.80
6462;DHT22;3264;42.862;25.098;2022-12-26T09:18:44;18.70;54.00
6462;DHT22;3264;42.862;25.098;2022-12-26T09:21:15;18.60;54.90
6462;DHT22;3264;42.862;25.098;2022-12-26T09:23:44;17.60;53.40
6462;DHT22;3264;42.862;25.098;2022-12-26T09:26:13;17.90;52.10
6462;DHT22;3264;42.862;25.098;2022-12-26T09:28:42;17.20;52.40
6462;DHT22;3264;42.862;25.098;2022-12-26T09:31:14;17.60;53.40
6462;DHT22;3264;42.862;25.098;2022-12-26T09:33:42;17.80;52.50
6462;DHT22;3264;42.862;25.098;2022-12-26T09:36:12;18.10;51.80
6462;DHT22;3264;42.862;25.098;2022-12-26T09:38:43;16.90;51.60
6462;DHT22;3264;42.862;25.098;2022-12-26T09:41:29;17.20;53.80
6462;DHT22;3264;42.862;25.098;2022-12-26T09:44:08;18.30;53.00
6462;DHT22;3264;42.862;25.098;2022-12-26T09:46:43;18.30;51.20
6462;DHT22;3264;42.862;25.098;2022-12-26T09:49:17;17.70;51.90
6462;DHT22;3264;42.862;25.098;2022-12-26T09:51:50;18.90;52.80
6462;DHT22;3264;42.862;25.098;2022-12-26T09:54:26;19.20;52.60
6462;DHT22;3264;42.862;25.098;2022-12-26T09:56:57;19.00;51.40
6462;DHT22;3264;42.862;25.098;2022-12-26T09:59:29;18.80;52.10
6462;DHT22;3264;42.862;25.098;2022-12-26T10:01:58;18.50;49.60
6462;DHT22;3264;42.862;25.098;2022-12-26T10:04:27;17.60;50.40
6462;DHT22;3264;42.862;25.098;2022-12-26T10:07:05;18.60;51.10
6462;DHT22;3264;42.862;25.098;2022-12-26T10:09:49;19.10;49.50
6462;DHT22;3264;42.862;25.098;2022-12-26T10:15:30;18.10;50.10
6462;DHT22;3264;42.862;25.098;2022-12-26T10:18:08;19.60;49.30
6462;DHT22;3264;42.862;25.098;2022-12-26T10:20:48;20.00;49.20
6462;DHT22;3264;42.862;25.098;2022-12-26T10:23:30;20.10;48.50
6462;DHT22;3264;42.862;25.098;2022-12-26T10:26:05;19.80;48.70
6462;DHT22;3264;42.862;25.098;2022-12-26T10:28:38;20.10;48.40
6462;DHT22;3264;42.862;25.098;2022-12-26T10:31:13;20.30;46.30
6462;DHT22;3264;42.862;25.098;2022-12-26T10:33:46;20.30;46.10
6462;DHT22;3264;42.862;25.098;2022-12-26T10:36:20;19.80;46.00
6462;DHT22;3264;42.862;25.098;2022-12-26T10:38:50;19.70;46.30
6462;DHT22;3264;42.862;25.098;2022-12-26T10:41:24;20.00;48.20
6462;DHT22;3264;42.862;25.098;2022-12-26T10:43:53;19.90;48.50
6462;DHT22;3264;42.862;25.098;2022-12-26T10:46:34;19.60;47.90
6462;DHT22;3264;42.862;25.098;2022-12-26T10:49:09;19.50;48.80
6462;DHT22;3264;42.862;25.098;2022-12-26T10:51:37;18.90;46.70
6462;DHT22;3264;42.862;25.098;2022-12-26T10:54:12;19.20;47.00
6462;DHT22;3264;42.862;25.098;2022-12-26T10:56:45;20.00;46.70
6462;DHT22;3264;42.862;25.098;2022-12-26T10:59:16;18.90;46.30
6462;DHT22;3264;42.862;25.098;2022-12-26T11:01:46;18.60;48.20
6462;DHT22;3264;42.862;25.098;2022-12-26T11:04:16;19.60;48.00
6462;DHT22;3264;42.862;25.098;2022-12-26T11:06:46;18.70;48.10
6462;DHT22;3264;42.862;25.098;2022-12-26T11:09:32;19.40;48.40
6462;DHT22;3264;42.862;25.098;2022-12-26T11:12:19;19.60;47.80
6462;DHT22;3264;42.862;25.098;2022-12-26T11:14:48;19.20;47.20
6462;DHT22;3264;42.862;25.098;2022-12-26T11:17:25;19.90;48.00
6462;DHT22;3264;42.862;25.098;2022-12-26T11:20:20;18.90;46.70
6462;DHT22;3264;42.862;25.098;2022-12-26T11:22:49;19.70;47.40
6462;DHT22;3264;42.862;25.098;2022-12-26T11:25:21;18.00;46.80
6462;DHT22;3264;42.862;25.098;2022-12-26T11:27:54;19.30;48.40
6462;DHT22;3264;42.862;25.098;2022-12-26T11:30:27;20.50;47.10
6462;DHT22;3264;42.862;25.098;2022-12-26T11:33:20;20.10;45.20
6462;DHT22;3264;42.862;25.098;2022-12-26T11:35:54;20.20;45.20
6462;DHT22;3264;42.862;25.098;2022-12-26T11:38:26;19.90;46.20
6462;DHT22;3264;42.862;25.098;2022-12-26T11:41:15;18.90;45.90
6462;DHT22;3264;42.862;25.098;2022-12-26T11:44:11;18.50;46.60
6462;DHT22;3264;42.862;25.098;2022-12-26T11:46:41;17.80;47.20
6462;DHT22;3264;42.862;25.098;2022-12-26T11:49:19;18.80;47.80
6462;DHT22;3264;42.862;25.098;2022-12-26T11:51:49;19.20;45.90
6462;DHT22;3264;42.862;25.098;2022-12-26T11:54:23;18.40;45.50
6462;DHT22;3264;42.862;25.098;2022-12-26T11:57:11;18.20;46.00
6462;DHT22;3264;42.862;25.098;2022-12-26T11:59:41;19.00;45.10
6462;DHT22;3264;42.862;25.098;2022-12-26T12:02:20;19.30;46.20
6462;DHT22;3264;42.862;25.098;2022-12-26T12:04:51;18.40;46.70
6462;DHT22;3264;42.862;25.098;2022-12-26T12:07:42;21.60;46.20
6462;DHT22;3264;42.862;25.098;2022-12-26T12:13:32;19.00;46.30
6462;DHT22;3264;42.862;25.098;2022-12-26T12:16:10;19.00;43.90
6462;DHT22;3264;42.862;25.098;2022-12-26T12:18:49;20.10;44.20
6462;DHT22;3264;42.862;25.098;2022-12-26T12:21:24;20.30;45.60
6462;DHT22;3264;42.862;25.098;2022-12-26T12:26:54;17.50;45.40
6462;DHT22;3264;42.862;25.098;2022-12-26T12:29:43;16.30;47.40
6462;DHT22;3264;42.862;25.098;2022-12-26T12:32:22;18.10;48.20
6462;DHT22;3264;42.862;25.098;2022-12-26T12:35:20;17.10;48.40
6462;DHT22;3264;42.862;25.098;2022-12-26T12:38:04;16.20;49.70
6462;DHT22;3264;42.862;25.098;2022-12-26T12:40:41;17.50;50.30
6462;DHT22;3264;42.862;25.098;2022-12-26T12:43:17;17.30;49.90
6462;DHT22;3264;42.862;25.098;2022-12-26T12:45:56;17.30;50.00
6462;DHT22;3264;42.862;25.098;2022-12-26T12:51:27;16.70;50.20
6462;DHT22;3264;42.862;25.098;2022-12-26T12:57:01;16.40;51.10
6462;DHT22;3264;42.862;25.098;2022-12-26T12:59:40;16.10;51.10
6462;DHT22;3264;42.862;25.098;2022-12-26T13:02:16;15.00;52.00
6462;DHT22;3264;42.862;25.098;2022-12-26T13:04:55;15.20;53.00
6462;DHT22;3264;42.862;25.098;2022-12-26T13:07:24;15.40;53.90
6462;DHT22;3264;42.862;25.098;2022-12-26T13:09:56;15.30;52.40
6462;DHT22;3264;42.862;25.098;2022-12-26T13:12:27;15.60;52.90
6462;DHT22;3264;42.862;25.098;2022-12-26T13:15:00;15.70;53.10
6462;DHT22;3264;42.862;25.098;2022-12-26T13:17:32;15.20;52.30
6462;DHT22;3264;42.862;25.098;2022-12-26T13:20:10;15.00;53.20
6462;DHT22;3264;42.862;25.098;2022-12-26T13:22:43;15.30;54.20
6462;DHT22;3264;42.862;25.098;2022-12-26T13:25:33;15.40;54.20
6462;DHT22;3264;42.862;25.098;2022-12-26T13:28:09;15.30;53.80
6462;DHT22;3264;42.862;25.098;2022-12-26T13:30:39;14.70;53.30
6462;DHT22;3264;42.862;25.098;2022-12-26T13:33:13;14.20;54.10
6462;DHT22;3264;42.862;25.098;2022-12-26T13:35:53;14.20;54.60
6462;DHT22;3264;42.862;25.098;2022-12-26T13:38:23;14.00;55.60
6462;DHT22;3264;42.862;25.098;2022-12-26T13:40:56;14.00;55.90
6462;DHT22;3264;42.862;25.098;2022-12-26T13:44:00;14.00;56.10
6462;DHT22;3264;42.862;25.098;2022-12-26T13:46:36;14.10;56.40
6462;DHT22;3264;42.862;25.098;2022-12-26T13:49:08;14.00;57.10
6462;DHT22;3264;42.862;25.098;2022-12-26T13:51:58;14.20;57.90
6462;DHT22;3264;42.862;25.098;2022-12-26T13:54:29;14.70;58.40
6462;DHT22;3264;42.862;25.098;2022-12-26T14:00:12;14.60;57.70
6462;DHT22;3264;42.862;25.098;2022-12-26T14:06:36;14.20;57.00
6462;DHT22;3264;42.862;25.098;2022-12-26T14:09:36;15.20;56.10
6462;DHT22;3264;42.862;25.098;2022-12-26T14:12:24;14.80;55.10
6462;DHT22;3264;42.862;25.098;2022-12-26T14:15:04;14.10;56.70
6462;DHT22;3264;42.862;25.098;2022-12-26T14:17:41;13.20;58.10
6462;DHT22;3264;42.862;25.098;2022-12-26T14:20:23;12.70;59.20
6462;DHT22;3264;42.862;25.098;2022-12-26T14:23:02;12.30;60.90
6462;DHT22;3264;42.862;25.098;2022-12-26T14:25:51;12.00;61.90
6462;DHT22;3264;42.862;25.098;2022-12-26T14:28:32;11.70;63.60
6462;DHT22;3264;42.862;25.098;2022-12-26T14:31:16;11.50;64.50
6462;DHT22;3264;42.862;25.098;2022-12-26T14:33:50;11.30;66.40
6462;DHT22;3264;42.862;25.098;2022-12-26T14:36:26;11.00;67.80
6462;DHT22;3264;42.862;25.098;2022-12-26T14:39:08;10.60;70.80
6462;DHT22;3264;42.862;25.098;2022-12-26T14:44:59;10.40;74.70
6462;DHT22;3264;42.862;25.098;2022-12-26T14:47:40;10.30;76.10
6462;DHT22;3264;42.862;25.098;2022-12-26T14:50:40;10.20;78.20
6462;DHT22;3264;42.862;25.098;2022-12-26T14:53:28;9.80;81.20
6462;DHT22;3264;42.862;25.098;2022-12-26T14:55:58;9.80;82.70
6462;DHT22;3264;42.862;25.098;2022-12-26T14:58:36;9.80;83.90
6462;DHT22;3264;42.862;25.098;2022-12-26T15:01:44;9.70;85.20
6462;DHT22;3264;42.862;25.098;2022-12-26T15:08:03;9.40;88.80
6462;DHT22;3264;42.862;25.098;2022-12-26T15:16:59;9.20;90.30
6462;DHT22;3264;42.862;25.098;2022-12-26T15:20:14;9.20;90.60
6462;DHT22;3264;42.862;25.098;2022-12-26T15:23:19;9.00;91.60
6462;DHT22;3264;42.862;25.098;2022-12-26T15:32:21;8.80;92.00
6462;DHT22;3264;42.862;25.098;2022-12-26T15:34:59;8.70;93.00
6462;DHT22;3264;42.862;25.098;2022-12-26T15:37:42;8.60;93.00
6462;DHT22;3264;42.862;25.098;2022-12-26T15:40:18;8.50;93.30
6462;DHT22;3264;42.862;25.098;2022-12-26T15:42:59;8.30;93.50
6462;DHT22;3264;42.862;25.098;2022-12-26T15:45:42;8.10;94.70
6462;DHT22;3264;42.862;25.098;2022-12-26T15:48:15;8.00;94.90
6462;DHT22;3264;42.862;25.098;2022-12-26T15:51:03;8.10;95.40
6462;DHT22;3264;42.862;25.098;2022-12-26T15:53:45;8.00;95.60
6462;DHT22;3264;42.862;25.098;2022-12-26T15:56:43;8.00;95.90
6462;DHT22;3264;42.862;25.098;2022-12-26T15:59:47;7.90;96.00
6462;DHT22;3264;42.862;25.098;2022-12-26T16:02:38;7.80;96.10
6462;DHT22;3264;42.862;25.098;2022-12-26T16:05:30;7.70;97.10
6462;DHT22;3264;42.862;25.098;2022-12-26T16:11:13;7.60;98.00
6462;DHT22;3264;42.862;25.098;2022-12-26T16:13:54;7.50;98.30
6462;DHT22;3264;42.862;25.098;2022-12-26T16:16:26;7.40;98.70
6462;DHT22;3264;42.862;25.098;2022-12-26T16:18:55;7.10;99.40
6462;DHT22;3264;42.862;25.098;2022-12-26T16:21:28;6.90;99.90
6462;DHT22;3264;42.862;25.098;2022-12-26T16:24:16;6.80;99.90
6462;DHT22;3264;42.862;25.098;2022-12-26T16:26:47;6.60;99.90
6462;DHT22;3264;42.862;25.098;2022-12-26T16:29:18;6.60;99.90
6462;DHT22;3264;42.862;25.098;2022-12-26T16:31:47;6.50;99.90
6462;DHT22;3264;42.862;25.098;2022-12-26T16:34:18;6.30;99.90
6462;DHT22;3264;42.862;25.098;2022-12-26T16:36:49;6.30;99.90
6462;DHT22;3264;42.862;25.098;2022-12-26T16:39:21;6.40;99.90
6462;DHT22;3264;42.862;25.098;2022-12-26T16:42:00;6.40;99.90
6462;DHT22;3264;42.862;25.098;2022-12-26T16:44:34;6.40;99.90
6462;DHT22;3264;42.862;25.098;2022-12-26T16:47:05;6.40;99.90
6462;DHT22;3264;42.862;25.098;2022-12-26T16:49:36;6.30;99.90
6462;DHT22;3264;42.862;25.098;2022-12-26T16:52:29;6.30;99.90
6462;DHT22;3264;42.862;25.098;2022-12-26T16:55:22;6.20;99.90
6462;DHT22;3264;42.862;25.098;2022-12-26T16:57:52;6.40;99.90
6462;DHT22;3264;42.862;25.098;2022-12-26T17:00:23;6.40;99.90
6462;DHT22;3264;42.862;25.098;2022-12-26T17:02:56;6.30;99.90
6462;DHT22;3264;42.862;25.098;2022-12-26T17:05:29;6.10;99.90
6462;DHT22;3264;42.862;25.098;2022-12-26T17:08:00;6.00;99.90
6462;DHT22;3264;42.862;25.098;2022-12-26T17:10:31;6.00;99.90
6462;DHT22;3264;42.862;25.098;2022-12-26T17:13:03;6.00;99.90
6462;DHT22;3264;42.862;25.098;2022-12-26T17:15:36;6.00;99.90
6462;DHT22;3264;42.862;25.098;2022-12-26T17:18:34;5.90;99.90
6462;DHT22;3264;42.862;25.098;2022-12-26T17:21:33;5.90;99.90
6462;DHT22;3264;42.862;25.098;2022-12-26T17:24:19;5.70;99.90
6462;DHT22;3264;42.862;25.098;2022-12-26T17:26:52;5.70;99.90
6462;DHT22;3264;42.862;25.098;2022-12-26T17:29:46;5.70;99.90
6462;DHT22;3264;42.862;25.098;2022-12-26T17:32:28;5.70;99.90
6462;DHT22;3264;42.862;25.098;2022-12-26T17:35:04;5.50;99.90
6462;DHT22;3264;42.862;25.098;2022-12-26T17:37:34;5.60;99.90
6462;DHT22;3264;42.862;25.098;2022-12-26T17:40:19;5.60;99.90
6462;DHT22;3264;42.862;25.098;2022-12-26T17:42:49;5.60;99.90
6462;DHT22;3264;42.862;25.098;2022-12-26T17:45:20;5.60;99.90